createdAt,value
2018-06-01T00:01:34.095Z,11.99
2018-06-01T00:04:00.506Z,11.87
2018-06-01T00:06:26.892Z,11.86
2018-06-01T00:08:53.301Z,11.80
2018-06-01T00:11:19.636Z,11.79
2018-06-01T00:13:46.062Z,11.85
2018-06-01T00:16:12.448Z,11.79
2018-06-01T00:18:38.792Z,11.79
2018-06-01T00:21:05.219Z,11.76
2018-06-01T00:23:31.653Z,11.71
2018-06-01T00:25:58.063Z,11.66
2018-06-01T00:28:24.417Z,11.61
2018-06-01T00:30:50.856Z,11.58
2018-06-01T00:33:17.244Z,11.56
2018-06-01T00:35:43.621Z,11.55
2018-06-01T00:38:09.947Z,11.59
2018-06-01T00:40:36.288Z,11.57
2018-06-01T00:43:02.647Z,11.49
2018-06-01T00:45:30.877Z,11.38
2018-06-01T00:47:57.444Z,11.37
2018-06-01T00:50:23.834Z,11.30
2018-06-01T00:52:50.136Z,11.29
2018-06-01T00:55:23.647Z,11.33
2018-06-01T00:57:49.966Z,11.34
2018-06-01T01:00:16.304Z,11.23
2018-06-01T01:02:42.589Z,11.09
2018-06-01T01:05:08.962Z,11.01
2018-06-01T01:07:35.422Z,10.99
2018-06-01T01:10:01.864Z,11.02
2018-06-01T01:12:28.247Z,11.02
2018-06-01T01:14:54.580Z,10.96
2018-06-01T01:17:20.959Z,10.89
2018-06-01T01:19:47.381Z,10.85
2018-06-01T01:22:13.790Z,10.85
2018-06-01T01:24:41.164Z,10.86
2018-06-01T01:27:07.545Z,10.81
2018-06-01T01:29:33.937Z,10.75
2018-06-01T01:32:00.428Z,10.74
2018-06-01T01:34:26.750Z,10.72
2018-06-01T01:36:53.119Z,10.73
2018-06-01T01:39:19.503Z,10.56
2018-06-01T01:41:45.845Z,10.50
2018-06-01T01:44:12.221Z,10.54
2018-06-01T01:46:38.545Z,10.49
2018-06-01T01:49:04.924Z,10.43
2018-06-01T01:51:31.323Z,10.39
2018-06-01T01:53:57.766Z,10.35
2018-06-01T01:56:24.142Z,10.34
2018-06-01T01:58:50.516Z,10.24
2018-06-01T02:01:16.925Z,10.25
2018-06-01T02:03:43.513Z,10.16
2018-06-01T02:06:09.998Z,10.28
2018-06-01T02:08:36.402Z,10.19
2018-06-01T02:11:02.866Z,10.15
2018-06-01T02:13:29.223Z,10.13
2018-06-01T02:15:55.750Z,10.09
2018-06-01T02:18:22.121Z,10.08
2018-06-01T02:20:48.486Z,10.03
2018-06-01T02:23:14.826Z,10.09
2018-06-01T02:25:41.453Z,10.01
2018-06-01T02:28:07.818Z,9.98
2018-06-01T02:30:34.258Z,9.89
2018-06-01T02:33:00.606Z,9.89
2018-06-01T02:35:27.119Z,9.72
2018-06-01T02:37:53.521Z,9.78
2018-06-01T02:40:19.846Z,9.75
2018-06-01T02:42:46.305Z,9.79
2018-06-01T02:45:12.638Z,9.73
2018-06-01T02:47:39.061Z,9.79
2018-06-01T02:50:05.454Z,9.72
2018-06-01T02:52:31.836Z,9.70
2018-06-01T02:54:58.241Z,9.57
2018-06-01T02:57:24.675Z,9.65
2018-06-01T02:59:51.200Z,9.72
2018-06-01T03:02:17.535Z,9.75
2018-06-01T03:04:43.892Z,9.67
2018-06-01T03:07:10.401Z,9.75
2018-06-01T03:09:36.756Z,9.72
2018-06-01T03:12:03.317Z,9.72
2018-06-01T03:14:29.801Z,9.75
2018-06-01T03:16:56.207Z,10.31
2018-06-01T03:19:22.573Z,12.18
2018-06-01T03:21:48.923Z,13.89
2018-06-01T03:24:15.375Z,15.42
2018-06-01T03:26:41.836Z,16.59
2018-06-01T03:29:08.312Z,17.59
2018-06-01T03:31:35.063Z,18.55
2018-06-01T03:34:01.626Z,19.12
2018-06-01T03:36:28.051Z,19.20
2018-06-01T03:38:54.627Z,19.77
2018-06-01T03:41:21.101Z,21.20
2018-06-01T03:43:47.552Z,21.60
2018-06-01T03:46:14.134Z,21.85
2018-06-01T03:48:40.549Z,22.23
2018-06-01T03:51:06.939Z,22.15
2018-06-01T03:53:33.397Z,22.12
2018-06-01T03:55:59.827Z,22.55
2018-06-01T03:58:26.209Z,21.95
2018-06-01T04:00:52.635Z,21.99
2018-06-01T04:03:19.028Z,21.67
2018-06-01T04:05:45.513Z,21.07
2018-06-01T04:08:12.037Z,21.29
2018-06-01T04:10:38.482Z,21.13
2018-06-01T04:13:04.897Z,20.42
2018-06-01T04:15:31.408Z,19.94
2018-06-01T04:17:57.762Z,19.61
2018-06-01T04:20:24.222Z,19.61
2018-06-01T04:22:50.867Z,19.67
2018-06-01T04:25:17.324Z,19.47
2018-06-01T04:27:43.756Z,18.99
2018-06-01T04:30:10.195Z,18.30
2018-06-01T04:32:36.799Z,18.73
2018-06-01T04:35:03.250Z,18.83
2018-06-01T04:37:29.716Z,18.72
2018-06-01T04:39:56.093Z,18.70
2018-06-01T04:42:22.434Z,18.99
2018-06-01T04:44:48.857Z,19.11
2018-06-01T04:47:15.293Z,19.35
2018-06-01T04:49:41.685Z,19.39
2018-06-01T04:52:08.081Z,19.66
2018-06-01T04:54:34.479Z,19.89
2018-06-01T04:57:00.859Z,19.87
2018-06-01T04:59:27.369Z,19.81
2018-06-01T05:01:53.864Z,19.78
2018-06-01T05:04:20.334Z,19.33
2018-06-01T05:06:46.957Z,19.06
2018-06-01T05:09:13.399Z,18.82
2018-06-01T05:11:39.733Z,19.04
2018-06-01T05:14:06.164Z,19.02
2018-06-01T05:16:32.603Z,19.17
2018-06-01T05:18:59.035Z,19.04
2018-06-01T05:21:25.437Z,19.34
2018-06-01T05:23:51.890Z,19.73
2018-06-01T05:26:18.268Z,19.85
2018-06-01T05:28:44.738Z,19.75
2018-06-01T05:31:11.120Z,19.62
2018-06-01T05:33:37.637Z,19.83
2018-06-01T05:36:04.029Z,20.00
2018-06-01T05:38:30.455Z,20.05
2018-06-01T05:40:56.825Z,20.06
2018-06-01T05:43:23.162Z,20.18
2018-06-01T05:45:49.665Z,20.08
2018-06-01T05:48:16.060Z,20.17
2018-06-01T05:50:42.641Z,20.48
2018-06-01T05:53:09.279Z,20.30
2018-06-01T05:55:35.759Z,20.83
2018-06-01T05:58:02.240Z,20.82
2018-06-01T06:00:28.696Z,20.41
2018-06-01T06:02:55.355Z,20.60
2018-06-01T06:05:21.966Z,20.36
2018-06-01T06:07:48.383Z,20.29
2018-06-01T06:10:14.872Z,20.70
2018-06-01T06:12:41.381Z,20.84
2018-06-01T06:15:07.750Z,21.04
2018-06-01T06:17:34.252Z,21.69
2018-06-01T06:20:00.653Z,21.58
2018-06-01T06:22:27.586Z,21.72
2018-06-01T06:24:54.039Z,21.72
2018-06-01T06:27:20.474Z,21.51
2018-06-01T06:29:46.918Z,21.70
2018-06-01T06:32:13.618Z,22.31
2018-06-01T06:34:40.032Z,22.38
2018-06-01T06:37:06.599Z,22.53
2018-06-01T06:39:33.273Z,22.41
2018-06-01T06:41:59.676Z,22.26
2018-06-01T06:44:26.458Z,22.17
2018-06-01T06:46:52.858Z,22.09
2018-06-01T06:49:19.295Z,22.44
2018-06-01T06:51:45.663Z,22.84
2018-06-01T06:54:11.982Z,22.41
2018-06-01T06:56:38.465Z,22.84
2018-06-01T06:59:04.907Z,23.04
2018-06-01T07:01:31.911Z,23.17
2018-06-01T07:03:58.361Z,23.51
2018-06-01T07:06:24.778Z,23.77
2018-06-01T07:08:51.246Z,24.38
2018-06-01T07:11:17.678Z,23.77
2018-06-01T07:13:44.056Z,23.95
2018-06-01T07:16:10.555Z,24.52
2018-06-01T07:18:36.876Z,24.94
2018-06-01T07:21:03.293Z,24.79
2018-06-01T07:23:29.676Z,25.06
2018-06-01T07:25:56.113Z,25.03
2018-06-01T07:28:22.543Z,24.87
2018-06-01T07:30:49.443Z,24.79
2018-06-01T07:33:15.873Z,25.03
2018-06-01T07:35:42.225Z,24.91
2018-06-01T07:38:08.640Z,25.55
2018-06-01T07:40:35.035Z,25.79
2018-06-01T07:43:01.359Z,25.98
2018-06-01T07:45:28.298Z,25.61
2018-06-01T07:47:54.750Z,25.39
2018-06-01T07:50:21.182Z,25.84
2018-06-01T07:52:47.636Z,26.11
2018-06-01T07:55:14.070Z,26.19
2018-06-01T07:57:40.524Z,26.32
2018-06-01T08:00:06.961Z,26.28
2018-06-01T08:02:33.352Z,25.74
2018-06-01T08:04:59.724Z,25.54
2018-06-01T08:07:26.086Z,25.43
2018-06-01T08:09:52.731Z,25.96
2018-06-01T08:12:19.467Z,26.60
2018-06-01T08:14:45.907Z,26.51
2018-06-01T08:17:12.494Z,26.10
2018-06-01T08:19:38.860Z,26.90
2018-06-01T08:22:05.374Z,26.90
2018-06-01T08:24:32.123Z,27.16
2018-06-01T08:26:58.792Z,27.37
2018-06-01T08:29:26.425Z,27.10
2018-06-01T08:31:53.880Z,27.27
2018-06-01T08:34:20.967Z,27.42
2018-06-01T08:36:49.065Z,27.33
2018-06-01T08:39:16.278Z,27.65
2018-06-01T08:41:42.985Z,27.47
2018-06-01T08:44:09.829Z,27.95
2018-06-01T08:46:36.812Z,27.83
2018-06-01T08:49:03.510Z,28.02
2018-06-01T08:51:29.887Z,28.20
2018-06-01T08:53:56.349Z,28.12
2018-06-01T08:56:23.787Z,27.92
2018-06-01T08:58:50.187Z,27.56
2018-06-01T09:01:17.000Z,27.95
2018-06-01T09:03:43.962Z,28.31
2018-06-01T09:06:11.209Z,28.40
2018-06-01T09:08:37.659Z,27.76
2018-06-01T09:11:04.076Z,27.94
2018-06-01T09:13:30.419Z,28.70
2018-06-01T09:15:56.898Z,28.79
2018-06-01T09:18:23.447Z,28.84
2018-06-01T09:47:13.471Z,28.22
2018-06-01T09:49:40.315Z,28.82
2018-06-01T09:52:07.021Z,29.18
2018-06-01T09:54:33.812Z,29.46
2018-06-01T09:57:00.352Z,30.10
2018-06-01T09:59:28.738Z,30.10
2018-06-01T10:01:55.959Z,30.35
2018-06-01T10:04:23.860Z,30.63
2018-06-01T10:06:50.906Z,30.48
2018-06-01T10:31:50.098Z,29.95
2018-06-01T10:34:16.578Z,29.68
2018-06-01T10:36:43.038Z,30.43
2018-06-01T10:39:09.399Z,30.56
2018-06-01T10:41:35.733Z,30.66
2018-06-01T10:44:02.259Z,30.49
2018-06-01T10:46:29.138Z,30.60
2018-06-01T10:48:55.529Z,30.46
2018-06-01T10:51:22.012Z,29.74
2018-06-01T10:53:48.463Z,29.74
2018-06-01T10:56:15.214Z,29.67
2018-06-01T10:58:41.591Z,29.92
2018-06-01T11:01:08.030Z,30.03
2018-06-01T11:03:34.526Z,30.21
2018-06-01T11:06:00.992Z,29.08
2018-06-01T11:08:27.427Z,29.38
2018-06-01T11:10:53.879Z,29.96
2018-06-01T11:13:20.321Z,30.32
2018-06-01T11:15:46.760Z,30.71
2018-06-01T11:18:13.208Z,30.31
2018-06-01T11:20:39.716Z,30.28
2018-06-01T11:23:06.264Z,29.87
2018-06-01T11:25:32.656Z,30.17
2018-06-01T11:28:02.865Z,30.08
2018-06-01T11:30:29.297Z,29.55
2018-06-01T11:32:55.738Z,30.05
2018-06-01T11:35:22.094Z,30.43
2018-06-01T11:37:52.698Z,30.32
2018-06-01T11:40:19.217Z,30.32
2018-06-01T11:42:45.642Z,30.15
2018-06-01T11:45:12.192Z,29.94
2018-06-01T11:47:38.742Z,30.30
2018-06-01T11:50:05.124Z,30.22
2018-06-01T11:52:31.592Z,30.08
2018-06-01T11:54:58.004Z,29.90
2018-06-01T11:57:29.073Z,30.18
2018-06-01T11:59:55.455Z,30.05
2018-06-01T12:02:21.844Z,30.17
2018-06-01T12:04:48.252Z,30.15
2018-06-01T12:07:14.806Z,30.08
2018-06-01T12:09:41.204Z,30.22
2018-06-01T12:12:07.617Z,30.21
2018-06-01T12:14:34.490Z,29.90
2018-06-01T12:17:00.983Z,30.14
2018-06-01T12:19:27.412Z,30.46
2018-06-01T12:21:54.169Z,30.48
2018-06-01T12:24:20.696Z,30.46
2018-06-01T13:42:01.843Z,29.11
2018-06-01T13:44:30.215Z,28.95
2018-06-01T13:46:56.931Z,29.06
2018-06-01T13:49:23.624Z,29.20
2018-06-01T13:51:50.393Z,29.30
2018-06-01T13:54:17.097Z,29.22
2018-06-01T13:56:44.650Z,28.90
2018-06-01T13:59:11.907Z,28.79
2018-06-01T14:01:38.287Z,28.93
2018-06-01T14:04:04.763Z,28.86
2018-06-01T14:06:31.307Z,29.07
2018-06-01T14:08:58.971Z,28.92
2018-06-01T14:11:25.516Z,28.96
2018-06-01T14:13:52.054Z,28.99
2018-06-01T14:16:18.529Z,29.01
2018-06-01T14:18:44.948Z,28.86
2018-06-01T14:21:11.600Z,28.79
2018-06-01T14:23:38.016Z,28.67
2018-06-01T14:26:05.143Z,28.61
2018-06-01T14:28:31.851Z,28.76
2018-06-01T14:30:58.376Z,28.68
2018-06-01T14:33:24.871Z,28.68
2018-06-01T14:35:51.718Z,28.57
2018-06-01T14:38:18.748Z,28.69
2018-06-01T14:40:45.421Z,28.61
2018-06-01T14:43:11.972Z,28.54
2018-06-01T14:45:38.604Z,28.34
2018-06-01T14:48:05.145Z,28.59
2018-06-01T14:50:31.631Z,28.35
2018-06-01T14:52:58.277Z,28.38
2018-06-01T14:55:25.053Z,28.25
2018-06-01T14:57:51.629Z,28.24
2018-06-01T15:00:18.290Z,28.09
2018-06-01T15:02:45.885Z,28.02
2018-06-01T15:05:12.360Z,27.86
2018-06-01T15:07:38.864Z,28.05
2018-06-01T15:10:05.385Z,28.13
2018-06-01T15:12:32.255Z,27.88
2018-06-01T15:14:58.758Z,27.93
2018-06-01T15:17:25.309Z,27.79
2018-06-01T15:19:52.092Z,27.83
2018-06-01T15:22:18.577Z,27.90
2018-06-01T15:24:44.993Z,27.94
2018-06-01T15:27:11.489Z,27.83
2018-06-01T15:29:38.040Z,27.53
2018-06-01T15:32:04.938Z,27.53
2018-06-01T15:34:32.242Z,27.51
2018-06-01T15:36:59.303Z,27.45
2018-06-01T15:39:25.887Z,27.20
2018-06-01T15:41:52.607Z,27.21
2018-06-01T15:44:19.691Z,27.16
2018-06-01T15:46:46.630Z,27.09
2018-06-01T15:49:13.320Z,27.15
2018-06-01T15:51:39.966Z,27.16
2018-06-01T15:54:06.661Z,27.04
2018-06-01T15:56:33.140Z,27.03
2018-06-01T15:58:59.760Z,26.94
2018-06-01T16:01:26.325Z,26.79
2018-06-01T16:03:52.797Z,26.63
2018-06-01T16:06:19.214Z,26.41
2018-06-01T16:08:45.650Z,26.37
2018-06-01T16:11:12.190Z,26.31
2018-06-01T16:13:39.220Z,25.96
2018-06-01T16:16:05.870Z,25.92
2018-06-01T16:18:32.789Z,25.70
2018-06-01T16:21:02.044Z,25.55
2018-06-01T16:23:35.702Z,25.27
2018-06-01T16:26:06.517Z,24.98
2018-06-01T16:28:36.780Z,24.76
2018-06-01T16:31:06.047Z,24.75
2018-06-01T16:33:36.000Z,24.54
2018-06-01T16:36:05.514Z,24.41
2018-06-01T16:38:34.222Z,24.11
2018-06-01T16:41:01.197Z,23.81
2018-06-01T16:43:27.700Z,23.41
2018-06-01T16:45:54.206Z,23.17
2018-06-01T16:48:20.703Z,23.37
2018-06-01T16:50:47.210Z,23.37
2018-06-01T16:53:13.632Z,23.15
2018-06-01T16:55:40.046Z,23.12
2018-06-01T16:58:06.526Z,22.80
2018-06-01T17:00:33.642Z,22.67
2018-06-01T17:03:00.417Z,22.75
2018-06-01T17:05:27.153Z,22.43
2018-06-01T17:07:54.347Z,22.18
2018-06-01T17:10:20.898Z,21.90
2018-06-01T17:12:47.882Z,21.81
2018-06-01T17:15:14.596Z,21.57
2018-06-01T17:17:42.160Z,21.70
2018-06-01T17:20:10.200Z,21.61
2018-06-01T17:22:37.001Z,21.52
2018-06-01T17:25:03.906Z,21.39
2018-06-01T17:27:31.264Z,21.23
2018-06-01T17:29:58.462Z,21.14
2018-06-01T17:32:26.364Z,21.10
2018-06-01T17:34:53.214Z,21.19
2018-06-01T17:37:20.270Z,20.81
2018-06-01T17:39:46.698Z,20.73
2018-06-01T17:42:13.500Z,20.70
2018-06-01T17:44:39.987Z,20.63
2018-06-01T17:47:06.555Z,20.44
2018-06-01T17:49:34.626Z,20.30
2018-06-01T17:52:01.596Z,20.22
2018-06-01T17:54:28.427Z,19.96
2018-06-01T17:56:55.037Z,19.99
2018-06-01T17:59:21.796Z,19.85
2018-06-01T18:01:48.624Z,19.87
2018-06-01T18:04:15.109Z,19.78
2018-06-01T18:06:41.611Z,19.77
2018-06-01T18:09:08.176Z,19.71
2018-06-01T18:11:34.643Z,19.58
2018-06-01T18:14:01.118Z,19.40
2018-06-01T18:16:27.626Z,19.36
2018-06-01T18:18:54.276Z,19.21
2018-06-01T18:21:20.751Z,19.15
2018-06-01T18:23:47.430Z,19.05
2018-06-01T18:26:14.324Z,19.00
2018-06-01T18:28:41.273Z,18.94
2018-06-01T18:31:08.260Z,18.72
2018-06-01T18:33:35.093Z,18.83
2018-06-01T18:36:02.533Z,18.83
2018-06-01T18:38:29.709Z,18.70
2018-06-01T18:40:56.532Z,18.60
2018-06-01T18:43:24.640Z,18.52
2018-06-01T18:45:52.395Z,18.39
2018-06-01T18:48:19.198Z,18.45
2018-06-01T18:50:46.630Z,18.36
2018-06-01T18:53:13.964Z,18.27
2018-06-01T18:55:41.237Z,18.19
2018-06-01T18:58:08.538Z,18.10
2018-06-01T19:00:35.730Z,17.99
2018-06-01T19:03:02.578Z,17.96
2018-06-01T19:05:30.070Z,17.85
2018-06-01T19:07:56.958Z,17.87
2018-06-01T19:10:23.863Z,17.79
2018-06-01T19:12:51.144Z,17.84
2018-06-01T19:15:18.084Z,17.78
2018-06-01T19:17:44.864Z,17.74
2018-06-01T19:20:11.626Z,17.72
2018-06-01T19:22:40.832Z,17.71
2018-06-01T19:25:08.417Z,17.75
2018-06-01T19:27:37.658Z,17.69
2018-06-01T19:30:05.032Z,17.65
2018-06-01T19:32:32.045Z,17.61
2018-06-01T19:34:59.986Z,17.58
2018-06-01T19:37:26.926Z,17.49
2018-06-01T19:39:53.796Z,17.44
2018-06-01T19:42:20.516Z,17.51
2018-06-01T19:44:47.204Z,17.45
2018-06-01T19:47:13.890Z,17.34
2018-06-01T19:49:40.591Z,17.30
2018-06-01T19:52:08.048Z,17.31
2018-06-01T19:54:37.073Z,17.30
2018-06-01T19:57:05.531Z,17.29
2018-06-01T19:59:33.628Z,17.21
2018-06-01T20:02:01.305Z,17.12
2018-06-01T20:04:28.553Z,17.12
2018-06-01T20:06:55.674Z,17.10
2018-06-01T20:09:22.635Z,16.99
2018-06-01T20:11:49.923Z,17.00
2018-06-01T20:14:16.753Z,17.02
2018-06-01T20:16:43.802Z,16.90
2018-06-01T20:19:10.906Z,16.88
2018-06-01T20:21:37.748Z,16.78
2018-06-01T20:24:05.102Z,16.87
2018-06-01T20:26:31.997Z,16.77
2018-06-01T20:28:58.858Z,16.74
2018-06-01T20:31:25.700Z,16.68
2018-06-01T20:33:52.884Z,16.62
2018-06-01T20:36:19.751Z,16.63
2018-06-01T20:38:46.441Z,16.64
2018-06-01T20:41:13.847Z,16.61
2018-06-01T20:43:40.580Z,16.58
2018-06-01T20:46:07.217Z,16.56
2018-06-01T20:48:33.937Z,16.57
2018-06-01T20:51:00.533Z,16.57
2018-06-01T20:53:27.245Z,16.49
2018-06-01T20:55:54.049Z,16.40
2018-06-01T20:58:21.214Z,16.38
2018-06-01T21:00:48.510Z,16.38
2018-06-01T21:03:15.222Z,16.34
2018-06-01T21:05:41.871Z,16.34
2018-06-01T21:08:08.539Z,16.27
2018-06-01T21:10:35.269Z,16.23
2018-06-01T21:13:01.872Z,16.17
2018-06-01T21:15:29.508Z,16.20
2018-06-01T21:17:56.291Z,16.23
2018-06-01T21:20:22.885Z,16.25
2018-06-01T21:22:49.520Z,16.25
2018-06-01T21:25:16.040Z,16.14
2018-06-01T21:27:42.558Z,16.20
2018-06-01T21:30:09.039Z,16.08
2018-06-01T21:32:35.474Z,16.15
2018-06-01T21:35:01.982Z,16.04
2018-06-01T21:37:28.476Z,15.98
2018-06-01T21:39:54.928Z,15.92
2018-06-01T21:42:21.492Z,15.77
2018-06-01T21:44:47.944Z,15.81
2018-06-01T21:47:14.430Z,15.86
2018-06-01T21:49:40.930Z,15.91
2018-06-01T21:52:07.647Z,15.98
2018-06-01T21:54:34.041Z,15.82
2018-06-01T21:57:00.481Z,15.73
2018-06-01T21:59:26.983Z,15.69
2018-06-01T22:01:53.934Z,15.65
2018-06-01T22:04:20.405Z,15.60
2018-06-01T22:06:47.051Z,15.55
2018-06-01T22:09:13.566Z,15.52
2018-06-01T22:11:40.105Z,15.48
2018-06-01T22:14:10.149Z,15.49
2018-06-01T22:16:37.009Z,15.48
2018-06-01T22:19:03.467Z,15.45
2018-06-01T22:21:29.973Z,15.41
2018-06-01T22:23:56.417Z,15.36
2018-06-01T22:26:22.931Z,15.29
2018-06-01T22:28:49.412Z,15.24
2018-06-01T22:31:15.973Z,15.18
2018-06-01T22:33:42.557Z,15.14
2018-06-01T22:36:09.305Z,15.11
2018-06-01T22:38:35.853Z,15.13
2018-06-01T22:41:02.352Z,15.14
2018-06-01T22:43:28.759Z,15.17
2018-06-01T22:45:55.261Z,15.16
2018-06-01T22:48:21.765Z,15.17
2018-06-01T22:50:48.190Z,15.16
2018-06-01T22:53:14.695Z,15.16
2018-06-01T22:55:41.174Z,15.12
2018-06-01T22:58:07.608Z,15.05
2018-06-01T23:00:43.053Z,15.05
2018-06-01T23:03:09.487Z,15.03
2018-06-01T23:05:35.898Z,15.02
2018-06-01T23:08:02.385Z,15.00
2018-06-01T23:10:28.838Z,15.02
2018-06-01T23:12:55.323Z,14.98
2018-06-01T23:15:21.758Z,14.99
2018-06-01T23:17:48.205Z,14.92
2018-06-01T23:20:14.636Z,14.86
2018-06-01T23:22:41.065Z,14.85
2018-06-01T23:25:07.533Z,14.82
2018-06-01T23:27:34.035Z,14.81
2018-06-01T23:30:00.614Z,14.74
2018-06-01T23:32:27.173Z,14.66
2018-06-01T23:34:53.584Z,14.65
2018-06-01T23:37:19.988Z,14.67
2018-06-01T23:39:46.503Z,14.94
2018-06-01T23:42:12.987Z,14.97
2018-06-01T23:44:39.449Z,14.74
2018-06-01T23:47:05.887Z,14.51
2018-06-01T23:49:32.348Z,14.39
2018-06-01T23:51:58.756Z,14.28
2018-06-01T23:54:25.174Z,14.19
2018-06-01T23:56:51.650Z,14.08
2018-06-01T23:59:18.224Z,14.02
